Groveland, New York
Current Conditions -  °F | °C
As of 5:54 AM on Friday 19 Dec 2014 (Local Time) from KDSV Reporting Station
Overcast Overcast  
Wind Chill: 15°   Ceiling: 1900
Heat Index: 27°   Visibility: 10mi
Dew Point: 21°   Wind: 15mph
Humidity: 78%   Direction: 320°NW
Pressure: 30.09"   Gusts: NA
Location:  42.66°N, 77.77°W
Report Text: KDSV 191054Z AUTO 32013KT 10SM OVC019 M03/M06 A3009 RMK AO2 SLP207 T10281061
Loading
Personal Weather Stations






























Interactive Weather Map New forecast layout! Learn more

10-Day Weather Forecast

Advertisements
Track Severe Weather on mobile